createdAt,value
2023-05-09T00:00:07.057Z,18.08
2023-05-09T00:02:36.093Z,17.85
2023-05-09T00:05:05.058Z,18.67
2023-05-09T00:07:33.537Z,18.30
2023-05-09T00:10:02.410Z,18.00
2023-05-09T00:12:31.098Z,17.88
2023-05-09T00:14:59.697Z,18.30
2023-05-09T00:17:29.425Z,18.85
2023-05-09T00:19:57.731Z,18.83
2023-05-09T00:22:26.089Z,18.77
2023-05-09T00:24:55.540Z,18.15
2023-05-09T00:27:23.818Z,18.17
2023-05-09T00:29:52.115Z,19.50
2023-05-09T00:32:20.901Z,18.05
2023-05-09T00:34:51.293Z,17.90
2023-05-09T00:37:19.710Z,18.20
2023-05-09T00:39:49.490Z,16.85
2023-05-09T00:42:17.965Z,17.58
2023-05-09T00:44:46.628Z,16.05
2023-05-09T00:47:15.009Z,17.13
2023-05-09T00:49:43.411Z,16.50
2023-05-09T00:52:13.182Z,17.50
2023-05-09T00:54:41.684Z,16.52
2023-05-09T00:57:10.199Z,17.23
2023-05-09T00:59:38.644Z,17.42
2023-05-09T01:02:07.012Z,17.08
2023-05-09T01:04:36.050Z,15.75
2023-05-09T01:07:10.373Z,16.10
2023-05-09T01:09:48.916Z,14.73
2023-05-09T01:12:27.912Z,14.63
2023-05-09T01:15:06.893Z,15.07
2023-05-09T01:17:45.479Z,13.40
2023-05-09T01:20:22.005Z,13.77
2023-05-09T01:23:02.544Z,14.45
2023-05-09T01:25:53.311Z,13.63
2023-05-09T01:28:38.786Z,13.48
2023-05-09T01:31:10.799Z,13.40
2023-05-09T01:33:43.934Z,13.10
2023-05-09T01:36:18.148Z,12.20
2023-05-09T01:38:50.250Z,12.95
2023-05-09T01:41:20.895Z,12.73
2023-05-09T01:43:52.038Z,11.43
2023-05-09T01:46:24.137Z,12.88
2023-05-09T01:48:53.604Z,11.98
2023-05-09T01:51:22.793Z,13.65
2023-05-09T01:53:52.982Z,12.43
2023-05-09T01:56:23.794Z,12.60
2023-05-09T01:58:54.341Z,11.75
2023-05-09T02:01:26.365Z,13.57
2023-05-09T02:03:56.903Z,13.88
2023-05-09T02:06:26.598Z,13.65
2023-05-09T02:08:55.112Z,13.27
2023-05-09T02:11:23.681Z,14.57
2023-05-09T02:13:52.069Z,14.02
2023-05-09T02:16:21.191Z,12.60
2023-05-09T02:18:52.812Z,12.93
2023-05-09T02:21:21.610Z,13.80
2023-05-09T02:23:50.246Z,13.25
2023-05-09T02:26:19.153Z,14.23
2023-05-09T02:28:48.260Z,13.43
2023-05-09T02:31:20.682Z,13.63
2023-05-09T02:33:51.788Z,13.20
2023-05-09T02:36:21.074Z,13.88
2023-05-09T02:38:50.055Z,13.57
2023-05-09T02:41:18.875Z,13.93
2023-05-09T02:43:47.852Z,14.13
2023-05-09T02:46:16.977Z,14.23
2023-05-09T02:48:45.471Z,13.23
2023-05-09T02:51:15.122Z,14.40
2023-05-09T02:53:43.528Z,14.43
2023-05-09T02:56:11.972Z,14.98
2023-05-09T02:58:40.631Z,14.90
2023-05-09T03:01:09.025Z,13.45
2023-05-09T03:03:38.089Z,13.38
2023-05-09T03:06:09.766Z,14.38
2023-05-09T03:08:39.490Z,14.65
2023-05-09T03:11:07.902Z,13.80
2023-05-09T03:13:36.339Z,15.15
2023-05-09T03:16:05.412Z,14.27
2023-05-09T03:18:33.840Z,15.38
2023-05-09T03:21:02.308Z,14.80
2023-05-09T03:27:32.156Z,14.85
2023-05-09T03:30:00.691Z,15.00
2023-05-09T03:32:29.068Z,15.10
2023-05-09T03:34:57.365Z,14.35
2023-05-09T03:37:27.044Z,15.40
2023-05-09T03:39:55.848Z,16.55
2023-05-09T03:42:24.222Z,15.65
2023-05-09T03:44:55.023Z,15.77
2023-05-09T03:47:23.550Z,17.90
2023-05-09T03:49:53.619Z,15.40
2023-05-09T03:52:21.924Z,16.90
2023-05-09T03:54:50.374Z,15.73
2023-05-09T03:57:18.808Z,16.95
2023-05-09T03:59:47.223Z,16.15
2023-05-09T04:02:17.016Z,16.27
2023-05-09T04:04:46.864Z,17.05
2023-05-09T04:07:15.168Z,15.68
2023-05-09T04:09:43.725Z,16.65
2023-05-09T04:12:12.174Z,16.17
2023-05-09T04:14:40.876Z,15.15
2023-05-09T04:17:09.227Z,15.30
2023-05-09T04:19:39.053Z,15.52
2023-05-09T04:22:07.444Z,16.52
2023-05-09T04:24:35.940Z,14.65
2023-05-09T04:27:04.422Z,15.73
2023-05-09T04:29:32.802Z,15.70
2023-05-09T04:32:01.265Z,14.13
2023-05-09T04:34:29.965Z,15.05
2023-05-09T04:37:00.280Z,15.07
2023-05-09T04:39:28.716Z,15.50
2023-05-09T04:41:57.013Z,15.18
2023-05-09T04:44:25.448Z,15.23
2023-05-09T04:46:55.175Z,14.40
2023-05-09T04:49:23.553Z,14.93
2023-05-09T04:51:52.669Z,14.73
2023-05-09T04:54:22.562Z,13.73
2023-05-09T04:56:50.910Z,13.68
2023-05-09T04:59:19.216Z,13.65
2023-05-09T05:01:49.857Z,13.18
2023-05-09T05:04:18.341Z,13.90
2023-05-09T05:06:48.870Z,14.10
2023-05-09T05:09:17.173Z,14.73
2023-05-09T05:11:58.417Z,13.60
2023-05-09T05:14:29.409Z,13.02
2023-05-09T05:16:57.750Z,13.50
2023-05-09T05:19:26.139Z,14.50
2023-05-09T05:21:54.507Z,13.30
2023-05-09T05:24:22.860Z,13.70
2023-05-09T05:26:52.560Z,13.93
2023-05-09T05:29:20.956Z,14.00
2023-05-09T05:31:49.902Z,13.93
2023-05-09T05:34:18.356Z,13.02
2023-05-09T05:36:47.910Z,14.32
2023-05-09T05:39:16.291Z,13.45
2023-05-09T05:41:44.643Z,13.00
2023-05-09T05:44:14.393Z,13.63
2023-05-09T05:46:42.746Z,12.88
2023-05-09T05:49:11.055Z,12.57
2023-05-09T05:51:39.507Z,13.60
2023-05-09T05:54:07.839Z,13.90
2023-05-09T05:56:36.133Z,14.32
2023-05-09T05:59:04.452Z,14.25
2023-05-09T06:01:34.117Z,13.75
2023-05-09T06:04:02.810Z,14.20
2023-05-09T06:06:31.257Z,13.95
2023-05-09T06:08:59.500Z,13.82
2023-05-09T06:11:27.938Z,14.10
2023-05-09T06:13:56.354Z,13.48
2023-05-09T06:16:24.728Z,13.85
2023-05-09T06:18:55.964Z,14.13
2023-05-09T06:21:24.683Z,13.65
2023-05-09T06:26:24.273Z,14.80
2023-05-09T06:28:52.518Z,13.70
2023-05-09T06:31:21.320Z,14.07
2023-05-09T06:33:50.312Z,13.80
2023-05-09T06:36:20.047Z,12.57
2023-05-09T06:38:49.084Z,13.70
2023-05-09T06:41:17.404Z,13.75
2023-05-09T06:43:45.773Z,12.90
2023-05-09T06:46:14.222Z,13.10
2023-05-09T06:48:42.691Z,13.68
2023-05-09T06:51:11.619Z,13.70
2023-05-09T06:53:41.318Z,13.93
2023-05-09T06:56:09.878Z,13.02
2023-05-09T06:58:38.556Z,13.32
2023-05-09T07:01:07.250Z,12.90
2023-05-09T07:03:35.886Z,13.82
2023-05-09T07:06:04.325Z,14.55
2023-05-09T07:08:32.975Z,14.50
2023-05-09T07:11:02.948Z,15.00
2023-05-09T07:13:31.206Z,15.48
2023-05-09T07:15:59.793Z,14.98
2023-05-09T07:18:28.141Z,14.45
2023-05-09T07:20:56.452Z,14.82
2023-05-09T07:23:25.390Z,14.73
2023-05-09T07:25:58.794Z,14.55
2023-05-09T07:28:28.444Z,14.80
2023-05-09T07:30:57.290Z,14.23
2023-05-09T07:33:25.682Z,15.07
2023-05-09T07:35:54.193Z,14.43
2023-05-09T07:38:22.540Z,14.10
2023-05-09T07:40:50.881Z,14.63
2023-05-09T07:43:19.195Z,14.20
2023-05-09T07:45:49.300Z,13.98
2023-05-09T07:48:17.639Z,15.35
2023-05-09T07:50:46.016Z,13.95
2023-05-09T07:53:14.304Z,15.55
2023-05-09T07:55:42.781Z,14.45
2023-05-09T07:58:11.040Z,14.43
2023-05-09T08:00:39.398Z,14.02
2023-05-09T08:03:09.175Z,14.20
2023-05-09T08:05:37.585Z,13.07
2023-05-09T08:08:06.175Z,12.75
2023-05-09T08:10:34.488Z,12.60
2023-05-09T08:13:02.960Z,12.15
2023-05-09T08:15:31.299Z,12.13
2023-05-09T08:17:59.882Z,11.07
2023-05-09T08:20:31.347Z,10.60
2023-05-09T08:22:59.872Z,10.00
2023-05-09T08:25:28.733Z,9.48
2023-05-09T08:27:57.115Z,8.55
2023-05-09T08:30:25.466Z,8.63
2023-05-09T08:32:53.861Z,8.20
2023-05-09T08:35:22.270Z,8.65
2023-05-09T08:37:52.204Z,8.90
2023-05-09T08:40:20.709Z,8.00
2023-05-09T08:42:51.071Z,7.60
2023-05-09T08:45:28.199Z,7.60
2023-05-09T08:48:00.804Z,7.72
2023-05-09T08:50:29.510Z,7.78
2023-05-09T08:52:59.356Z,8.15
2023-05-09T08:55:28.295Z,8.75
2023-05-09T08:57:56.790Z,8.88
2023-05-09T09:00:26.643Z,9.10
2023-05-09T09:02:56.503Z,9.20
2023-05-09T09:05:39.902Z,9.77
2023-05-09T09:08:11.944Z,9.15
2023-05-09T09:10:43.501Z,8.85
2023-05-09T09:13:15.026Z,8.93
2023-05-09T09:15:46.932Z,9.80
2023-05-09T09:18:23.526Z,9.35
2023-05-09T09:21:07.439Z,9.88
2023-05-09T09:23:41.439Z,10.73
2023-05-09T09:26:10.041Z,10.00
2023-05-09T09:28:38.361Z,10.68
2023-05-09T09:31:21.797Z,10.32
2023-05-09T09:33:50.382Z,9.88
2023-05-09T09:36:28.472Z,10.32
2023-05-09T09:39:01.755Z,10.15
2023-05-09T09:41:34.102Z,10.82
2023-05-09T09:44:09.374Z,10.73
2023-05-09T09:46:45.004Z,10.15
2023-05-09T09:49:14.574Z,10.63
2023-05-09T09:51:43.893Z,10.88
2023-05-09T09:54:16.207Z,11.25
2023-05-09T09:56:46.907Z,11.52
2023-05-09T09:59:17.452Z,10.90
2023-05-09T10:02:01.264Z,10.27
2023-05-09T10:04:33.432Z,10.32
2023-05-09T10:07:05.098Z,10.82
2023-05-09T10:09:38.248Z,10.55
2023-05-09T10:12:09.481Z,11.02
2023-05-09T10:14:39.844Z,11.15
2023-05-09T10:17:08.502Z,10.38
2023-05-09T10:19:39.411Z,11.85
2023-05-09T10:22:11.997Z,11.48
2023-05-09T10:24:49.576Z,10.90
2023-05-09T10:27:23.956Z,11.15
2023-05-09T10:30:02.362Z,12.20
2023-05-09T10:32:40.694Z,11.07
2023-05-09T10:35:14.187Z,10.88
2023-05-09T10:37:44.234Z,10.88
2023-05-09T10:40:15.381Z,10.90
2023-05-09T10:42:44.685Z,10.13
2023-05-09T10:45:14.134Z,10.32
2023-05-09T10:47:45.470Z,10.30
2023-05-09T10:50:14.738Z,10.30
2023-05-09T10:53:11.579Z,9.95
2023-05-09T10:55:51.444Z,9.63
2023-05-09T10:58:32.086Z,9.85
2023-05-09T11:01:01.995Z,10.38
2023-05-09T11:03:54.623Z,11.63
2023-05-09T11:06:43.990Z,10.13
2023-05-09T11:09:28.482Z,9.98
2023-05-09T11:12:00.825Z,10.40
2023-05-09T11:14:33.509Z,10.60
2023-05-09T11:17:04.223Z,9.93
2023-05-09T11:19:58.700Z,10.23
2023-05-09T11:22:28.851Z,10.90
2023-05-09T11:25:05.768Z,10.75
2023-05-09T11:27:47.968Z,10.85
2023-05-09T11:30:18.664Z,11.23
2023-05-09T11:32:51.438Z,10.77
2023-05-09T11:35:21.684Z,11.70
2023-05-09T11:37:52.446Z,11.13
2023-05-09T11:40:22.518Z,11.38
2023-05-09T11:42:57.753Z,11.18
2023-05-09T11:45:28.748Z,11.43
2023-05-09T11:47:58.214Z,10.52
2023-05-09T11:50:26.873Z,9.30
2023-05-09T11:52:55.839Z,10.90
2023-05-09T11:55:25.611Z,10.70
2023-05-09T11:57:55.910Z,10.63
2023-05-09T12:00:26.864Z,9.95
2023-05-09T12:02:55.381Z,10.60
2023-05-09T12:05:24.610Z,9.70
2023-05-09T12:07:53.420Z,10.13
2023-05-09T12:10:23.905Z,9.25
2023-05-09T12:12:55.678Z,10.18
2023-05-09T12:15:24.872Z,10.02
2023-05-09T12:18:04.468Z,9.43
2023-05-09T12:20:47.097Z,9.45
2023-05-09T12:23:16.673Z,9.57
2023-05-09T12:25:54.948Z,10.35
2023-05-09T12:28:26.547Z,9.57
2023-05-09T12:30:56.239Z,9.93
2023-05-09T12:33:24.898Z,9.75
2023-05-09T12:36:05.891Z,10.30
2023-05-09T12:38:34.642Z,7.82
2023-05-09T12:41:04.278Z,7.88
2023-05-09T12:43:35.952Z,7.13
2023-05-09T12:46:05.522Z,6.88
2023-05-09T12:48:39.720Z,7.32
2023-05-09T12:51:09.125Z,8.10
2023-05-09T12:53:40.821Z,8.30
2023-05-09T12:56:15.619Z,8.75
2023-05-09T12:58:52.755Z,10.57
2023-05-09T13:01:22.144Z,10.52
2023-05-09T13:03:53.929Z,11.02
2023-05-09T13:06:24.206Z,10.38
2023-05-09T13:09:01.555Z,10.05
2023-05-09T13:11:31.565Z,10.13
2023-05-09T13:14:03.238Z,10.32
2023-05-09T13:16:31.643Z,9.55
2023-05-09T13:19:01.586Z,9.68
2023-05-09T13:21:29.937Z,9.43
2023-05-09T13:23:58.429Z,8.98
2023-05-09T13:26:27.353Z,8.75
2023-05-09T13:28:55.779Z,9.27
2023-05-09T13:31:25.705Z,8.75
2023-05-09T13:33:54.082Z,8.85
2023-05-09T13:36:22.384Z,9.23
2023-05-09T13:38:51.216Z,8.75
2023-05-09T13:41:22.546Z,10.35
2023-05-09T13:43:51.084Z,9.60
2023-05-09T13:46:19.460Z,9.70
2023-05-09T13:48:49.455Z,10.00
2023-05-09T13:51:17.808Z,10.50
2023-05-09T13:53:46.596Z,11.27
2023-05-09T13:56:48.961Z,13.15
2023-05-09T13:59:17.466Z,6.45
2023-05-09T14:01:46.016Z,5.10
2023-05-09T14:04:15.907Z,5.43
2023-05-09T14:06:48.347Z,4.82
2023-05-09T14:09:17.126Z,4.90
2023-05-09T14:11:45.666Z,5.45
2023-05-09T14:14:14.281Z,4.85
2023-05-09T14:16:42.935Z,5.57
2023-05-09T14:19:11.321Z,6.20
2023-05-09T14:21:41.394Z,6.90
2023-05-09T14:24:10.379Z,6.55
2023-05-09T14:26:39.029Z,6.75
2023-05-09T14:29:07.620Z,6.72
2023-05-09T14:31:36.075Z,6.70
2023-05-09T14:34:06.218Z,6.70
2023-05-09T14:36:34.833Z,7.05
2023-05-09T14:39:05.523Z,6.95
2023-05-09T14:41:34.105Z,6.90
2023-05-09T14:44:02.496Z,6.53
2023-05-09T14:46:31.035Z,7.50
2023-05-09T14:49:04.115Z,8.13
2023-05-09T14:51:33.388Z,9.25
2023-05-09T14:54:04.598Z,8.20
2023-05-09T14:56:33.319Z,8.88
2023-05-09T14:59:03.475Z,7.82
2023-05-09T15:01:31.884Z,8.95
2023-05-09T15:04:00.659Z,8.75
2023-05-09T15:06:30.441Z,9.60
2023-05-09T15:08:58.819Z,7.90
2023-05-09T15:11:28.762Z,8.30
2023-05-09T15:13:59.190Z,8.43
2023-05-09T15:16:27.703Z,8.98
2023-05-09T15:18:56.425Z,7.53
2023-05-09T15:21:24.705Z,6.80
2023-05-09T15:23:53.000Z,6.35
2023-05-09T15:26:21.284Z,4.82
2023-05-09T15:28:51.021Z,4.60
2023-05-09T15:31:21.667Z,4.82
2023-05-09T15:33:50.077Z,5.20
2023-05-09T15:36:18.445Z,5.30
2023-05-09T15:38:49.520Z,5.10
2023-05-09T15:41:18.583Z,5.25
2023-05-09T15:43:47.020Z,4.93
2023-05-09T15:46:17.009Z,4.40
2023-05-09T15:48:45.484Z,4.50
2023-05-09T15:51:13.926Z,4.07
2023-05-09T15:53:42.395Z,3.95
2023-05-09T15:56:10.753Z,4.00
2023-05-09T15:58:40.430Z,3.50
2023-05-09T16:01:13.040Z,3.55
2023-05-09T16:03:43.405Z,4.20
2023-05-09T16:06:17.556Z,3.65
2023-05-09T16:08:48.928Z,3.50
2023-05-09T16:11:18.731Z,4.47
2023-05-09T16:13:48.045Z,4.20
2023-05-09T16:16:16.781Z,3.97
2023-05-09T16:19:13.720Z,3.80
2023-05-09T16:21:52.829Z,3.92
2023-05-09T16:24:21.327Z,4.10
2023-05-09T16:26:49.887Z,4.03
2023-05-09T16:29:18.245Z,4.38
2023-05-09T16:31:46.737Z,4.07
2023-05-09T16:34:16.524Z,4.13
2023-05-09T16:36:46.814Z,4.57
2023-05-09T16:39:15.339Z,4.55
2023-05-09T16:41:43.915Z,4.93
2023-05-09T16:44:12.971Z,4.43
2023-05-09T16:46:41.325Z,4.35
2023-05-09T16:49:09.667Z,4.85
2023-05-09T16:51:39.437Z,4.65
2023-05-09T16:54:07.881Z,3.30
2023-05-09T16:56:36.510Z,3.78
2023-05-09T16:59:05.310Z,3.45
2023-05-09T17:01:33.695Z,3.22
2023-05-09T17:04:02.665Z,2.60
2023-05-09T17:06:31.074Z,2.70
2023-05-09T17:09:01.633Z,2.50
2023-05-09T17:11:30.418Z,3.13
2023-05-09T17:14:00.219Z,2.40
2023-05-09T17:16:28.728Z,2.50
2023-05-09T17:18:57.259Z,2.53
2023-05-09T17:21:26.034Z,3.30
2023-05-09T17:23:54.910Z,2.90
2023-05-09T17:26:25.925Z,2.90
2023-05-09T17:28:54.845Z,2.75
2023-05-09T17:31:23.360Z,2.72
2023-05-09T17:33:51.860Z,3.38
2023-05-09T17:36:20.277Z,3.65
2023-05-09T17:38:49.116Z,3.50
2023-05-09T17:41:17.523Z,3.97
2023-05-09T17:43:47.671Z,4.80
2023-05-09T17:46:16.206Z,4.47
2023-05-09T17:48:44.625Z,4.22
2023-05-09T17:51:14.246Z,4.30
2023-05-09T17:53:43.447Z,4.70
2023-05-09T17:56:11.886Z,4.82
2023-05-09T17:58:40.266Z,5.20
2023-05-09T18:01:10.260Z,4.78
2023-05-09T18:03:39.336Z,5.13
2023-05-09T18:06:07.929Z,5.15
2023-05-09T18:08:38.013Z,5.72
2023-05-09T18:11:06.919Z,5.72
2023-05-09T18:13:35.510Z,5.97
2023-05-09T18:16:04.156Z,6.78
2023-05-09T18:18:35.628Z,7.15
2023-05-09T18:21:05.038Z,8.50
2023-05-09T18:23:33.532Z,9.23
2023-05-09T18:26:04.527Z,9.32
2023-05-09T18:28:39.508Z,9.77
2023-05-09T18:31:11.871Z,9.48
2023-05-09T18:33:42.356Z,9.90
2023-05-09T18:36:11.424Z,9.52
2023-05-09T18:38:41.056Z,10.50
2023-05-09T18:41:11.334Z,8.32
2023-05-09T18:43:45.896Z,7.53
2023-05-09T18:46:17.479Z,7.22
2023-05-09T18:48:50.241Z,7.28
2023-05-09T18:51:19.254Z,6.30
2023-05-09T18:53:48.555Z,7.13
2023-05-09T18:56:20.954Z,7.32
2023-05-09T18:58:52.496Z,6.78
2023-05-09T19:01:21.635Z,6.47
2023-05-09T19:03:54.403Z,6.57
2023-05-09T19:06:24.100Z,6.63
2023-05-09T19:08:53.898Z,5.70
2023-05-09T19:11:22.442Z,5.32
2023-05-09T19:13:52.819Z,6.05
2023-05-09T19:16:22.793Z,5.35
2023-05-09T19:19:05.461Z,5.22
2023-05-09T19:21:35.675Z,4.95
2023-05-09T19:24:06.365Z,4.50
2023-05-09T19:26:34.900Z,3.65
2023-05-09T19:29:08.092Z,3.30
2023-05-09T19:31:37.720Z,4.28
2023-05-09T19:34:07.745Z,4.25
2023-05-09T19:36:36.225Z,4.60
2023-05-09T19:39:05.431Z,4.38
2023-05-09T19:41:34.090Z,4.50
2023-05-09T19:44:02.782Z,4.68
2023-05-09T19:46:31.246Z,5.47
2023-05-09T19:48:59.719Z,5.65
2023-05-09T19:51:29.589Z,6.80
2023-05-09T19:54:03.563Z,6.32
2023-05-09T19:56:32.653Z,6.38
2023-05-09T19:59:01.128Z,6.75
2023-05-09T20:01:29.756Z,6.47
2023-05-09T20:04:00.965Z,6.85
2023-05-09T20:06:30.894Z,6.72
2023-05-09T20:08:59.745Z,6.63
2023-05-09T20:11:28.654Z,7.93
2023-05-09T20:13:57.751Z,7.25
2023-05-09T20:16:31.564Z,7.45
2023-05-09T20:19:00.038Z,8.07
2023-05-09T20:21:28.426Z,9.15
2023-05-09T20:23:58.551Z,8.90
2023-05-09T20:26:28.211Z,10.65
2023-05-09T20:29:01.311Z,11.23
2023-05-09T20:31:29.994Z,11.63
2023-05-09T20:33:59.736Z,11.63
2023-05-09T20:36:28.970Z,12.07
2023-05-09T20:38:58.872Z,13.18
2023-05-09T20:41:27.334Z,13.77
2023-05-09T20:43:56.010Z,15.73
2023-05-09T20:46:24.350Z,18.65
2023-05-09T20:48:52.651Z,19.63
2023-05-09T20:51:21.034Z,21.08
2023-05-09T20:53:49.633Z,20.33
2023-05-09T20:56:19.815Z,22.60
2023-05-09T20:58:50.174Z,20.67
2023-05-09T21:01:19.030Z,24.45
2023-05-09T21:03:48.041Z,20.23
2023-05-09T21:06:16.512Z,23.15
2023-05-09T21:08:44.932Z,21.75
2023-05-09T21:11:13.425Z,21.73
2023-05-09T21:13:43.495Z,22.00
2023-05-09T21:16:11.876Z,22.90
2023-05-09T21:18:40.530Z,23.67
2023-05-09T21:21:09.143Z,22.75
2023-05-09T21:23:37.802Z,23.25
2023-05-09T21:26:06.878Z,23.08
2023-05-09T21:28:35.306Z,23.00
2023-05-09T21:31:05.385Z,24.73
2023-05-09T21:33:33.891Z,23.58
2023-05-09T21:36:02.319Z,22.75
2023-05-09T21:38:30.809Z,22.75
2023-05-09T21:40:59.394Z,24.30
2023-05-09T21:43:28.970Z,24.48
2023-05-09T21:45:57.683Z,24.77
2023-05-09T21:48:27.725Z,23.13
2023-05-09T21:50:56.565Z,21.67
2023-05-09T21:53:25.529Z,22.05
2023-05-09T21:55:54.401Z,23.00
2023-05-09T21:58:22.909Z,23.67
2023-05-09T22:00:51.450Z,22.38
2023-05-09T22:03:19.961Z,24.60
2023-05-09T22:05:50.183Z,22.92
2023-05-09T22:08:18.486Z,23.75
2023-05-09T22:10:47.074Z,22.10
2023-05-09T22:13:15.463Z,23.33
2023-05-09T22:15:44.207Z,23.50
2023-05-09T22:18:12.780Z,27.13
2023-05-09T22:20:41.116Z,24.45
2023-05-09T22:23:11.136Z,24.10
2023-05-09T22:25:39.702Z,24.10
2023-05-09T22:28:08.233Z,24.90
2023-05-09T22:30:37.101Z,25.65
2023-05-09T22:33:05.760Z,24.52
2023-05-09T22:35:34.229Z,24.20
2023-05-09T22:38:03.256Z,25.52
2023-05-09T22:40:33.081Z,24.83
2023-05-09T22:43:01.587Z,23.45
2023-05-09T22:45:30.063Z,23.30
2023-05-09T22:47:58.484Z,26.38
2023-05-09T22:50:26.934Z,25.38
2023-05-09T22:52:55.630Z,24.42
2023-05-09T22:55:24.999Z,25.42
2023-05-09T22:57:55.634Z,24.60
2023-05-09T23:00:24.058Z,25.92
2023-05-09T23:02:52.684Z,23.58
2023-05-09T23:05:21.297Z,24.85
2023-05-09T23:07:49.956Z,24.60
2023-05-09T23:10:18.599Z,25.52
2023-05-09T23:12:47.628Z,25.17
2023-05-09T23:15:17.714Z,26.88
2023-05-09T23:17:46.665Z,24.58
2023-05-09T23:20:15.446Z,24.85
2023-05-09T23:22:44.198Z,24.05
2023-05-09T23:25:12.925Z,23.73
2023-05-09T23:27:42.048Z,23.92
2023-05-09T23:30:11.713Z,23.67
2023-05-09T23:32:42.232Z,22.40
2023-05-09T23:35:11.686Z,23.70
2023-05-09T23:37:40.351Z,21.80
2023-05-09T23:40:13.023Z,21.23
2023-05-09T23:42:42.195Z,18.67
2023-05-09T23:45:12.733Z,18.75
2023-05-09T23:47:43.482Z,19.38
2023-05-09T23:50:13.409Z,18.92
2023-05-09T23:52:43.922Z,18.90
2023-05-09T23:55:13.114Z,17.80
2023-05-09T23:57:42.822Z,18.67
